sensor_id;sensor_type;location;lat;lon;timestamp;temperature;humidity
52273;DHT22;38227;50.942;4.016;2023-03-04T00:00:42;7.50;99.90
52273;DHT22;38227;50.942;4.016;2023-03-04T00:03:14;7.40;99.90
52273;DHT22;38227;50.942;4.016;2023-03-04T00:05:43;7.50;99.90
52273;DHT22;38227;50.942;4.016;2023-03-04T00:08:13;7.60;99.90
52273;DHT22;38227;50.942;4.016;2023-03-04T00:10:42;7.60;99.90
52273;DHT22;38227;50.942;4.016;2023-03-04T00:13:10;7.70;99.90
52273;DHT22;38227;50.942;4.016;2023-03-04T00:15:42;7.80;99.90
52273;DHT22;38227;50.942;4.016;2023-03-04T00:18:10;7.90;99.90
52273;DHT22;38227;50.942;4.016;2023-03-04T00:20:42;7.90;99.90
52273;DHT22;38227;50.942;4.016;2023-03-04T00:23:11;7.90;99.90
52273;DHT22;38227;50.942;4.016;2023-03-04T00:25:39;8.00;99.90
52273;DHT22;38227;50.942;4.016;2023-03-04T00:28:11;8.00;99.90
52273;DHT22;38227;50.942;4.016;2023-03-04T00:30:39;8.00;99.90
52273;DHT22;38227;50.942;4.016;2023-03-04T00:33:12;8.00;99.90
52273;DHT22;38227;50.942;4.016;2023-03-04T00:35:41;8.00;99.90
52273;DHT22;38227;50.942;4.016;2023-03-04T00:38:10;8.00;99.90
52273;DHT22;38227;50.942;4.016;2023-03-04T00:40:48;8.10;99.90
52273;DHT22;38227;50.942;4.016;2023-03-04T00:43:16;8.00;99.90
52273;DHT22;38227;50.942;4.016;2023-03-04T00:45:48;8.00;99.90
52273;DHT22;38227;50.942;4.016;2023-03-04T00:48:17;8.00;99.90
52273;DHT22;38227;50.942;4.016;2023-03-04T00:50:54;7.90;99.90
52273;DHT22;38227;50.942;4.016;2023-03-04T00:53:24;8.10;99.90
52273;DHT22;38227;50.942;4.016;2023-03-04T00:55:56;8.10;99.90
52273;DHT22;38227;50.942;4.016;2023-03-04T00:58:25;8.10;99.90
52273;DHT22;38227;50.942;4.016;2023-03-04T01:01:04;8.10;99.90
52273;DHT22;38227;50.942;4.016;2023-03-04T01:03:32;8.20;99.90
52273;DHT22;38227;50.942;4.016;2023-03-04T01:06:00;8.20;99.90
52273;DHT22;38227;50.942;4.016;2023-03-04T01:08:32;8.20;99.90
52273;DHT22;38227;50.942;4.016;2023-03-04T01:11:05;8.20;99.90
52273;DHT22;38227;50.942;4.016;2023-03-04T01:13:33;8.10;99.90
52273;DHT22;38227;50.942;4.016;2023-03-04T01:16:05;8.10;99.90
52273;DHT22;38227;50.942;4.016;2023-03-04T01:18:33;8.10;99.90
52273;DHT22;38227;50.942;4.016;2023-03-04T01:21:02;8.00;99.90
52273;DHT22;38227;50.942;4.016;2023-03-04T01:23:43;7.90;99.90
52273;DHT22;38227;50.942;4.016;2023-03-04T01:26:14;8.00;99.90
52273;DHT22;38227;50.942;4.016;2023-03-04T01:28:55;7.90;99.90
52273;DHT22;38227;50.942;4.016;2023-03-04T01:31:32;8.00;99.90
52273;DHT22;38227;50.942;4.016;2023-03-04T01:34:03;8.10;99.90
52273;DHT22;38227;50.942;4.016;2023-03-04T01:36:37;8.20;99.90
52273;DHT22;38227;50.942;4.016;2023-03-04T01:39:09;8.20;99.90
52273;DHT22;38227;50.942;4.016;2023-03-04T01:41:50;8.20;99.90
52273;DHT22;38227;50.942;4.016;2023-03-04T01:44:22;8.20;99.90
52273;DHT22;38227;50.942;4.016;2023-03-04T01:47:01;8.10;99.90
52273;DHT22;38227;50.942;4.016;2023-03-04T01:49:32;7.90;99.90
52273;DHT22;38227;50.942;4.016;2023-03-04T01:52:11;7.80;99.90
52273;DHT22;38227;50.942;4.016;2023-03-04T01:54:46;7.80;99.90
52273;DHT22;38227;50.942;4.016;2023-03-04T01:57:24;7.80;99.90
52273;DHT22;38227;50.942;4.016;2023-03-04T02:00:28;7.70;99.90
52273;DHT22;38227;50.942;4.016;2023-03-04T02:03:10;7.90;99.90
52273;DHT22;38227;50.942;4.016;2023-03-04T02:05:42;7.90;99.90
52273;DHT22;38227;50.942;4.016;2023-03-04T02:08:13;8.00;99.90
52273;DHT22;38227;50.942;4.016;2023-03-04T02:10:43;7.80;99.90
52273;DHT22;38227;50.942;4.016;2023-03-04T02:13:13;7.70;99.90
52273;DHT22;38227;50.942;4.016;2023-03-04T02:15:44;7.70;99.90
52273;DHT22;38227;50.942;4.016;2023-03-04T02:18:23;7.90;99.90
52273;DHT22;38227;50.942;4.016;2023-03-04T02:21:31;7.90;99.90
52273;DHT22;38227;50.942;4.016;2023-03-04T02:27:07;7.80;99.90
52273;DHT22;38227;50.942;4.016;2023-03-04T02:29:35;7.90;99.90
52273;DHT22;38227;50.942;4.016;2023-03-04T02:32:09;7.90;99.90
52273;DHT22;38227;50.942;4.016;2023-03-04T02:34:46;7.90;99.90
52273;DHT22;38227;50.942;4.016;2023-03-04T02:37:16;8.00;99.90
52273;DHT22;38227;50.942;4.016;2023-03-04T02:39:47;8.20;99.90
52273;DHT22;38227;50.942;4.016;2023-03-04T02:42:16;8.20;99.90
52273;DHT22;38227;50.942;4.016;2023-03-04T02:44:48;8.20;99.90
52273;DHT22;38227;50.942;4.016;2023-03-04T02:47:28;8.20;99.90
52273;DHT22;38227;50.942;4.016;2023-03-04T02:49:56;8.20;99.90
52273;DHT22;38227;50.942;4.016;2023-03-04T02:52:28;8.00;99.90
52273;DHT22;38227;50.942;4.016;2023-03-04T02:54:57;7.90;99.90
52273;DHT22;38227;50.942;4.016;2023-03-04T02:57:26;8.00;99.90
52273;DHT22;38227;50.942;4.016;2023-03-04T03:00:05;8.10;99.90
52273;DHT22;38227;50.942;4.016;2023-03-04T03:02:35;8.20;99.90
52273;DHT22;38227;50.942;4.016;2023-03-04T03:05:08;8.10;99.90
52273;DHT22;38227;50.942;4.016;2023-03-04T03:07:36;8.10;99.90
52273;DHT22;38227;50.942;4.016;2023-03-04T03:10:09;8.10;99.90
52273;DHT22;38227;50.942;4.016;2023-03-04T03:12:38;8.00;99.90
52273;DHT22;38227;50.942;4.016;2023-03-04T03:15:07;8.10;99.90
52273;DHT22;38227;50.942;4.016;2023-03-04T03:17:40;8.10;99.90
52273;DHT22;38227;50.942;4.016;2023-03-04T03:20:11;8.20;99.90
52273;DHT22;38227;50.942;4.016;2023-03-04T03:22:40;8.10;99.90
52273;DHT22;38227;50.942;4.016;2023-03-04T03:25:11;8.10;99.90
52273;DHT22;38227;50.942;4.016;2023-03-04T03:27:39;8.20;99.90
52273;DHT22;38227;50.942;4.016;2023-03-04T03:30:10;8.10;99.90
52273;DHT22;38227;50.942;4.016;2023-03-04T03:32:42;8.00;99.90
52273;DHT22;38227;50.942;4.016;2023-03-04T03:35:14;8.00;99.90
52273;DHT22;38227;50.942;4.016;2023-03-04T03:37:43;7.90;99.90
52273;DHT22;38227;50.942;4.016;2023-03-04T03:40:12;8.00;99.90
52273;DHT22;38227;50.942;4.016;2023-03-04T03:42:40;7.90;99.90
52273;DHT22;38227;50.942;4.016;2023-03-04T03:45:09;8.00;99.90
52273;DHT22;38227;50.942;4.016;2023-03-04T03:47:38;8.00;99.90
52273;DHT22;38227;50.942;4.016;2023-03-04T03:50:07;8.10;99.90
52273;DHT22;38227;50.942;4.016;2023-03-04T03:52:47;7.90;99.90
52273;DHT22;38227;50.942;4.016;2023-03-04T03:55:27;7.90;99.90
52273;DHT22;38227;50.942;4.016;2023-03-04T03:57:59;8.00;99.90
52273;DHT22;38227;50.942;4.016;2023-03-04T04:00:29;7.90;99.90
52273;DHT22;38227;50.942;4.016;2023-03-04T04:02:59;7.90;99.90
52273;DHT22;38227;50.942;4.016;2023-03-04T04:05:27;7.90;99.90
52273;DHT22;38227;50.942;4.016;2023-03-04T04:07:56;7.90;99.90
52273;DHT22;38227;50.942;4.016;2023-03-04T04:10:24;7.90;99.90
52273;DHT22;38227;50.942;4.016;2023-03-04T04:13:00;7.80;99.90
52273;DHT22;38227;50.942;4.016;2023-03-04T04:15:37;7.80;99.90
52273;DHT22;38227;50.942;4.016;2023-03-04T04:18:23;7.80;99.90
52273;DHT22;38227;50.942;4.016;2023-03-04T04:20:54;7.80;99.90
52273;DHT22;38227;50.942;4.016;2023-03-04T04:23:29;7.80;99.90
52273;DHT22;38227;50.942;4.016;2023-03-04T04:25:59;7.70;99.90
52273;DHT22;38227;50.942;4.016;2023-03-04T04:28:34;7.70;99.90
52273;DHT22;38227;50.942;4.016;2023-03-04T04:31:11;7.70;99.90
52273;DHT22;38227;50.942;4.016;2023-03-04T04:33:43;7.70;99.90
52273;DHT22;38227;50.942;4.016;2023-03-04T04:36:17;7.70;99.90
52273;DHT22;38227;50.942;4.016;2023-03-04T04:38:49;7.70;99.90
52273;DHT22;38227;50.942;4.016;2023-03-04T04:41:31;7.80;99.90
52273;DHT22;38227;50.942;4.016;2023-03-04T04:44:10;7.70;99.90
52273;DHT22;38227;50.942;4.016;2023-03-04T04:46:44;7.80;99.90
52273;DHT22;38227;50.942;4.016;2023-03-04T04:49:21;7.80;99.90
52273;DHT22;38227;50.942;4.016;2023-03-04T04:51:51;7.80;99.90
52273;DHT22;38227;50.942;4.016;2023-03-04T04:54:26;7.80;99.90
52273;DHT22;38227;50.942;4.016;2023-03-04T04:57:02;7.90;99.90
52273;DHT22;38227;50.942;4.016;2023-03-04T04:59:33;7.80;99.90
52273;DHT22;38227;50.942;4.016;2023-03-04T05:02:08;7.80;99.90
52273;DHT22;38227;50.942;4.016;2023-03-04T05:04:39;7.90;99.90
52273;DHT22;38227;50.942;4.016;2023-03-04T05:07:15;7.90;99.90
52273;DHT22;38227;50.942;4.016;2023-03-04T05:09:56;7.90;99.90
52273;DHT22;38227;50.942;4.016;2023-03-04T05:12:27;7.80;99.90
52273;DHT22;38227;50.942;4.016;2023-03-04T05:14:58;7.80;99.90
52273;DHT22;38227;50.942;4.016;2023-03-04T05:17:38;7.80;99.90
52273;DHT22;38227;50.942;4.016;2023-03-04T05:20:11;7.90;99.90
52273;DHT22;38227;50.942;4.016;2023-03-04T05:22:46;7.90;99.90
52273;DHT22;38227;50.942;4.016;2023-03-04T05:25:17;8.00;99.90
52273;DHT22;38227;50.942;4.016;2023-03-04T05:27:58;8.00;99.90
52273;DHT22;38227;50.942;4.016;2023-03-04T05:30:28;8.10;99.90
52273;DHT22;38227;50.942;4.016;2023-03-04T05:33:07;8.10;99.90
52273;DHT22;38227;50.942;4.016;2023-03-04T05:35:40;8.10;99.90
52273;DHT22;38227;50.942;4.016;2023-03-04T05:38:12;8.20;99.90
52273;DHT22;38227;50.942;4.016;2023-03-04T05:40:40;8.10;99.90
52273;DHT22;38227;50.942;4.016;2023-03-04T05:43:10;8.10;99.90
52273;DHT22;38227;50.942;4.016;2023-03-04T05:45:41;8.00;99.90
52273;DHT22;38227;50.942;4.016;2023-03-04T05:48:16;8.10;99.90
52273;DHT22;38227;50.942;4.016;2023-03-04T05:50:54;8.00;99.90
52273;DHT22;38227;50.942;4.016;2023-03-04T05:53:27;8.10;99.90
52273;DHT22;38227;50.942;4.016;2023-03-04T05:56:00;7.90;99.90
52273;DHT22;38227;50.942;4.016;2023-03-04T05:58:33;7.90;99.90
52273;DHT22;38227;50.942;4.016;2023-03-04T06:01:04;7.90;99.90
52273;DHT22;38227;50.942;4.016;2023-03-04T06:03:35;7.90;99.90
52273;DHT22;38227;50.942;4.016;2023-03-04T06:06:06;7.90;99.90
52273;DHT22;38227;50.942;4.016;2023-03-04T06:08:37;7.90;99.90
52273;DHT22;38227;50.942;4.016;2023-03-04T06:11:16;7.90;99.90
52273;DHT22;38227;50.942;4.016;2023-03-04T06:13:44;7.80;99.90
52273;DHT22;38227;50.942;4.016;2023-03-04T06:16:17;7.80;99.90
52273;DHT22;38227;50.942;4.016;2023-03-04T06:18:45;7.90;99.90
52273;DHT22;38227;50.942;4.016;2023-03-04T06:21:24;7.90;99.90
52273;DHT22;38227;50.942;4.016;2023-03-04T06:23:53;7.90;99.90
52273;DHT22;38227;50.942;4.016;2023-03-04T06:26:32;7.90;99.90
52273;DHT22;38227;50.942;4.016;2023-03-04T06:29:00;8.10;99.90
52273;DHT22;38227;50.942;4.016;2023-03-04T06:31:31;8.00;99.90
52273;DHT22;38227;50.942;4.016;2023-03-04T06:34:12;8.00;99.90
52273;DHT22;38227;50.942;4.016;2023-03-04T06:36:43;8.10;99.90
52273;DHT22;38227;50.942;4.016;2023-03-04T06:39:18;8.10;99.90
52273;DHT22;38227;50.942;4.016;2023-03-04T06:41:49;8.00;99.90
52273;DHT22;38227;50.942;4.016;2023-03-04T06:44:30;8.10;99.90
52273;DHT22;38227;50.942;4.016;2023-03-04T06:47:05;7.90;99.90
52273;DHT22;38227;50.942;4.016;2023-03-04T06:49:46;8.00;99.90
52273;DHT22;38227;50.942;4.016;2023-03-04T06:52:24;8.10;99.90
52273;DHT22;38227;50.942;4.016;2023-03-04T06:55:05;8.00;99.90
52273;DHT22;38227;50.942;4.016;2023-03-04T06:57:38;7.90;99.90
52273;DHT22;38227;50.942;4.016;2023-03-04T07:00:11;7.90;99.90
52273;DHT22;38227;50.942;4.016;2023-03-04T07:02:44;7.90;99.90
52273;DHT22;38227;50.942;4.016;2023-03-04T07:05:14;7.80;99.90
52273;DHT22;38227;50.942;4.016;2023-03-04T07:07:51;7.80;99.90
52273;DHT22;38227;50.942;4.016;2023-03-04T07:10:22;7.90;99.90
52273;DHT22;38227;50.942;4.016;2023-03-04T07:12:54;7.90;99.90
52273;DHT22;38227;50.942;4.016;2023-03-04T07:15:24;7.90;99.90
52273;DHT22;38227;50.942;4.016;2023-03-04T07:17:59;7.90;99.90
52273;DHT22;38227;50.942;4.016;2023-03-04T07:20:30;7.90;99.90
52273;DHT22;38227;50.942;4.016;2023-03-04T07:23:02;8.00;99.90
52273;DHT22;38227;50.942;4.016;2023-03-04T07:25:43;7.90;99.90
52273;DHT22;38227;50.942;4.016;2023-03-04T07:28:20;7.90;99.90
52273;DHT22;38227;50.942;4.016;2023-03-04T07:31:09;7.90;99.90
52273;DHT22;38227;50.942;4.016;2023-03-04T07:33:43;8.00;99.90
52273;DHT22;38227;50.942;4.016;2023-03-04T07:36:20;8.10;99.90
52273;DHT22;38227;50.942;4.016;2023-03-04T07:38:57;8.10;99.90
52273;DHT22;38227;50.942;4.016;2023-03-04T07:41:31;8.00;99.90
52273;DHT22;38227;50.942;4.016;2023-03-04T07:44:01;8.00;99.90
52273;DHT22;38227;50.942;4.016;2023-03-04T07:46:30;7.90;99.90
52273;DHT22;38227;50.942;4.016;2023-03-04T07:49:03;8.00;99.90
52273;DHT22;38227;50.942;4.016;2023-03-04T07:51:31;8.10;99.90
52273;DHT22;38227;50.942;4.016;2023-03-04T07:54:00;8.20;99.90
52273;DHT22;38227;50.942;4.016;2023-03-04T07:56:32;8.20;99.90
52273;DHT22;38227;50.942;4.016;2023-03-04T07:59:02;8.30;99.90
52273;DHT22;38227;50.942;4.016;2023-03-04T08:01:35;8.30;99.90
52273;DHT22;38227;50.942;4.016;2023-03-04T08:04:07;8.30;99.90
52273;DHT22;38227;50.942;4.016;2023-03-04T08:06:44;8.40;99.90
52273;DHT22;38227;50.942;4.016;2023-03-04T08:09:13;8.30;99.90
52273;DHT22;38227;50.942;4.016;2023-03-04T08:11:43;8.20;99.90
52273;DHT22;38227;50.942;4.016;2023-03-04T08:14:12;8.10;99.90
52273;DHT22;38227;50.942;4.016;2023-03-04T08:16:41;8.10;99.90
52273;DHT22;38227;50.942;4.016;2023-03-04T08:19:10;8.10;99.90
52273;DHT22;38227;50.942;4.016;2023-03-04T08:21:39;8.20;99.90
52273;DHT22;38227;50.942;4.016;2023-03-04T08:24:12;8.30;99.90
52273;DHT22;38227;50.942;4.016;2023-03-04T08:26:44;8.20;99.90
52273;DHT22;38227;50.942;4.016;2023-03-04T08:29:17;8.20;99.90
52273;DHT22;38227;50.942;4.016;2023-03-04T08:31:48;8.30;99.90
52273;DHT22;38227;50.942;4.016;2023-03-04T08:34:18;8.40;99.90
52273;DHT22;38227;50.942;4.016;2023-03-04T08:36:50;8.60;99.90
52273;DHT22;38227;50.942;4.016;2023-03-04T08:39:20;8.60;99.90
52273;DHT22;38227;50.942;4.016;2023-03-04T08:41:50;8.60;99.90
52273;DHT22;38227;50.942;4.016;2023-03-04T08:44:40;8.70;99.90
52273;DHT22;38227;50.942;4.016;2023-03-04T08:47:09;8.90;99.90
52273;DHT22;38227;50.942;4.016;2023-03-04T08:49:41;9.20;99.90
52273;DHT22;38227;50.942;4.016;2023-03-04T08:52:09;9.00;99.90
52273;DHT22;38227;50.942;4.016;2023-03-04T08:54:38;8.50;99.90
52273;DHT22;38227;50.942;4.016;2023-03-04T08:57:07;8.50;99.90
52273;DHT22;38227;50.942;4.016;2023-03-04T08:59:39;8.50;99.90
52273;DHT22;38227;50.942;4.016;2023-03-04T09:02:10;8.40;99.90
52273;DHT22;38227;50.942;4.016;2023-03-04T09:04:45;8.50;99.90
52273;DHT22;38227;50.942;4.016;2023-03-04T09:07:14;8.60;99.90
52273;DHT22;38227;50.942;4.016;2023-03-04T09:09:47;8.70;99.90
52273;DHT22;38227;50.942;4.016;2023-03-04T09:12:16;8.70;99.90
52273;DHT22;38227;50.942;4.016;2023-03-04T09:14:54;8.70;99.90
52273;DHT22;38227;50.942;4.016;2023-03-04T09:17:23;8.70;99.90
52273;DHT22;38227;50.942;4.016;2023-03-04T09:19:56;8.80;99.90
52273;DHT22;38227;50.942;4.016;2023-03-04T09:22:24;8.90;99.90
52273;DHT22;38227;50.942;4.016;2023-03-04T09:25:02;8.90;99.90
52273;DHT22;38227;50.942;4.016;2023-03-04T09:27:36;8.80;99.90
52273;DHT22;38227;50.942;4.016;2023-03-04T09:30:04;8.90;99.90
52273;DHT22;38227;50.942;4.016;2023-03-04T09:32:35;9.00;99.90
52273;DHT22;38227;50.942;4.016;2023-03-04T09:35:11;8.90;99.90
52273;DHT22;38227;50.942;4.016;2023-03-04T09:37:47;8.90;99.90
52273;DHT22;38227;50.942;4.016;2023-03-04T09:40:29;9.10;99.90
52273;DHT22;38227;50.942;4.016;2023-03-04T09:43:02;9.40;99.90
52273;DHT22;38227;50.942;4.016;2023-03-04T09:45:42;9.50;99.90
52273;DHT22;38227;50.942;4.016;2023-03-04T09:48:19;9.60;99.90
52273;DHT22;38227;50.942;4.016;2023-03-04T09:51:10;9.30;99.90
52273;DHT22;38227;50.942;4.016;2023-03-04T09:57:29;9.30;99.90
52273;DHT22;38227;50.942;4.016;2023-03-04T10:00:16;9.40;99.90
52273;DHT22;38227;50.942;4.016;2023-03-04T10:05:48;9.40;99.90
52273;DHT22;38227;50.942;4.016;2023-03-04T10:08:55;9.70;99.90
52273;DHT22;38227;50.942;4.016;2023-03-04T10:12:01;9.70;99.90
52273;DHT22;38227;50.942;4.016;2023-03-04T10:14:39;9.70;99.90
52273;DHT22;38227;50.942;4.016;2023-03-04T10:17:39;9.60;99.90
52273;DHT22;38227;50.942;4.016;2023-03-04T10:20:26;9.50;99.90
52273;DHT22;38227;50.942;4.016;2023-03-04T10:23:24;9.70;99.90
52273;DHT22;38227;50.942;4.016;2023-03-04T10:25:55;9.60;99.90
52273;DHT22;38227;50.942;4.016;2023-03-04T10:28:25;9.30;99.90
52273;DHT22;38227;50.942;4.016;2023-03-04T10:31:32;9.10;99.90
52273;DHT22;38227;50.942;4.016;2023-03-04T10:34:02;9.10;99.90
52273;DHT22;38227;50.942;4.016;2023-03-04T10:39:46;9.50;99.90
52273;DHT22;38227;50.942;4.016;2023-03-04T10:42:38;9.60;99.90
52273;DHT22;38227;50.942;4.016;2023-03-04T10:45:22;9.60;99.90
52273;DHT22;38227;50.942;4.016;2023-03-04T10:47:53;9.70;99.90
52273;DHT22;38227;50.942;4.016;2023-03-04T10:50:27;9.70;99.90
52273;DHT22;38227;50.942;4.016;2023-03-04T10:52:55;9.70;99.90
52273;DHT22;38227;50.942;4.016;2023-03-04T10:55:44;9.80;99.90
52273;DHT22;38227;50.942;4.016;2023-03-04T10:58:17;9.80;99.90
52273;DHT22;38227;50.942;4.016;2023-03-04T11:01:04;9.70;99.90
52273;DHT22;38227;50.942;4.016;2023-03-04T11:03:54;9.90;99.90
52273;DHT22;38227;50.942;4.016;2023-03-04T11:06:23;9.90;99.90
52273;DHT22;38227;50.942;4.016;2023-03-04T11:09:26;10.20;99.90
52273;DHT22;38227;50.942;4.016;2023-03-04T11:12:00;10.30;99.90
52273;DHT22;38227;50.942;4.016;2023-03-04T11:14:36;10.40;99.90
52273;DHT22;38227;50.942;4.016;2023-03-04T11:17:24;10.50;99.90
52273;DHT22;38227;50.942;4.016;2023-03-04T11:22:49;10.10;99.90
52273;DHT22;38227;50.942;4.016;2023-03-04T11:25:34;10.00;99.90
52273;DHT22;38227;50.942;4.016;2023-03-04T11:31:12;10.60;99.90
52273;DHT22;38227;50.942;4.016;2023-03-04T11:34:11;10.70;99.90
52273;DHT22;38227;50.942;4.016;2023-03-04T11:37:22;10.90;99.90
52273;DHT22;38227;50.942;4.016;2023-03-04T11:40:28;11.00;99.90
52273;DHT22;38227;50.942;4.016;2023-03-04T11:43:18;11.00;99.90
52273;DHT22;38227;50.942;4.016;2023-03-04T11:52:28;10.80;99.90
52273;DHT22;38227;50.942;4.016;2023-03-04T11:55:37;10.80;99.90
52273;DHT22;38227;50.942;4.016;2023-03-04T12:01:48;10.80;99.90
52273;DHT22;38227;50.942;4.016;2023-03-04T12:04:44;10.60;99.90
52273;DHT22;38227;50.942;4.016;2023-03-04T12:14:16;10.90;99.90
52273;DHT22;38227;50.942;4.016;2023-03-04T12:27:15;11.40;99.90
52273;DHT22;38227;50.942;4.016;2023-03-04T12:33:54;11.30;99.90
52273;DHT22;38227;50.942;4.016;2023-03-04T12:43:29;10.90;99.90
52273;DHT22;38227;50.942;4.016;2023-03-04T12:49:39;10.90;99.90
52273;DHT22;38227;50.942;4.016;2023-03-04T12:55:18;11.00;99.90
52273;DHT22;38227;50.942;4.016;2023-03-04T12:57:50;11.10;99.90
52273;DHT22;38227;50.942;4.016;2023-03-04T13:01:01;11.00;99.90
52273;DHT22;38227;50.942;4.016;2023-03-04T13:03:57;11.00;99.90
52273;DHT22;38227;50.942;4.016;2023-03-04T13:07:03;11.00;99.90
52273;DHT22;38227;50.942;4.016;2023-03-04T13:09:48;10.80;99.90
52273;DHT22;38227;50.942;4.016;2023-03-04T13:12:22;10.50;99.90
52273;DHT22;38227;50.942;4.016;2023-03-04T13:15:37;10.40;99.90
52273;DHT22;38227;50.942;4.016;2023-03-04T13:18:33;10.40;99.90
52273;DHT22;38227;50.942;4.016;2023-03-04T13:21:33;10.40;99.90
52273;DHT22;38227;50.942;4.016;2023-03-04T13:24:47;10.40;99.90
52273;DHT22;38227;50.942;4.016;2023-03-04T13:27:47;10.40;99.90
52273;DHT22;38227;50.942;4.016;2023-03-04T13:33:49;10.50;99.90
52273;DHT22;38227;50.942;4.016;2023-03-04T13:36:32;10.50;99.90
52273;DHT22;38227;50.942;4.016;2023-03-04T13:39:34;10.60;99.90
52273;DHT22;38227;50.942;4.016;2023-03-04T13:42:41;10.80;99.90
52273;DHT22;38227;50.942;4.016;2023-03-04T13:48:30;10.90;99.90
52273;DHT22;38227;50.942;4.016;2023-03-04T13:51:03;10.90;99.90
52273;DHT22;38227;50.942;4.016;2023-03-04T13:56:47;11.00;99.90
52273;DHT22;38227;50.942;4.016;2023-03-04T13:59:39;10.90;99.90
52273;DHT22;38227;50.942;4.016;2023-03-04T14:02:29;10.90;99.90
52273;DHT22;38227;50.942;4.016;2023-03-04T14:05:00;10.80;99.90
52273;DHT22;38227;50.942;4.016;2023-03-04T14:10:24;11.00;99.90
52273;DHT22;38227;50.942;4.016;2023-03-04T14:12:57;10.90;99.90
52273;DHT22;38227;50.942;4.016;2023-03-04T14:15:27;10.60;99.90
52273;DHT22;38227;50.942;4.016;2023-03-04T14:17:57;10.70;99.90
52273;DHT22;38227;50.942;4.016;2023-03-04T14:20:46;10.80;99.90
52273;DHT22;38227;50.942;4.016;2023-03-04T14:23:29;10.90;99.90
52273;DHT22;38227;50.942;4.016;2023-03-04T14:26:11;10.60;99.90
52273;DHT22;38227;50.942;4.016;2023-03-04T14:29:02;10.50;99.90
52273;DHT22;38227;50.942;4.016;2023-03-04T14:31:34;10.40;99.90
52273;DHT22;38227;50.942;4.016;2023-03-04T14:34:04;10.30;99.90
52273;DHT22;38227;50.942;4.016;2023-03-04T14:36:43;10.40;99.90
52273;DHT22;38227;50.942;4.016;2023-03-04T14:39:17;10.40;99.90
52273;DHT22;38227;50.942;4.016;2023-03-04T14:41:49;10.20;99.90
52273;DHT22;38227;50.942;4.016;2023-03-04T14:44:40;9.90;99.90
52273;DHT22;38227;50.942;4.016;2023-03-04T14:47:22;9.80;99.90
52273;DHT22;38227;50.942;4.016;2023-03-04T14:49:52;9.70;99.90
52273;DHT22;38227;50.942;4.016;2023-03-04T14:53:12;9.60;99.90
52273;DHT22;38227;50.942;4.016;2023-03-04T14:56:06;9.70;99.90
52273;DHT22;38227;50.942;4.016;2023-03-04T14:58:39;9.70;99.90
52273;DHT22;38227;50.942;4.016;2023-03-04T15:01:27;9.90;99.90
52273;DHT22;38227;50.942;4.016;2023-03-04T15:04:10;10.00;99.90
52273;DHT22;38227;50.942;4.016;2023-03-04T15:06:48;10.20;99.90
52273;DHT22;38227;50.942;4.016;2023-03-04T15:09:25;10.20;99.90
52273;DHT22;38227;50.942;4.016;2023-03-04T15:12:03;10.20;99.90
52273;DHT22;38227;50.942;4.016;2023-03-04T15:15:28;10.30;99.90
52273;DHT22;38227;50.942;4.016;2023-03-04T15:18:00;10.20;99.90
52273;DHT22;38227;50.942;4.016;2023-03-04T15:20:29;10.20;99.90
52273;DHT22;38227;50.942;4.016;2023-03-04T15:23:02;10.30;99.90
52273;DHT22;38227;50.942;4.016;2023-03-04T15:25:33;10.30;99.90
52273;DHT22;38227;50.942;4.016;2023-03-04T15:28:02;10.30;99.90
52273;DHT22;38227;50.942;4.016;2023-03-04T15:30:32;10.30;99.90
52273;DHT22;38227;50.942;4.016;2023-03-04T15:33:00;10.30;99.90
52273;DHT22;38227;50.942;4.016;2023-03-04T15:35:32;10.30;99.90
52273;DHT22;38227;50.942;4.016;2023-03-04T15:38:07;10.10;99.90
52273;DHT22;38227;50.942;4.016;2023-03-04T15:40:36;10.10;99.90
52273;DHT22;38227;50.942;4.016;2023-03-04T15:43:10;10.20;99.90
52273;DHT22;38227;50.942;4.016;2023-03-04T15:45:41;10.30;99.90
52273;DHT22;38227;50.942;4.016;2023-03-04T15:48:12;10.30;99.90
52273;DHT22;38227;50.942;4.016;2023-03-04T15:50:54;10.50;99.90
52273;DHT22;38227;50.942;4.016;2023-03-04T15:53:42;10.30;99.90
52273;DHT22;38227;50.942;4.016;2023-03-04T15:56:21;10.30;99.90
52273;DHT22;38227;50.942;4.016;2023-03-04T15:58:54;10.40;99.90
52273;DHT22;38227;50.942;4.016;2023-03-04T16:01:23;10.40;99.90
52273;DHT22;38227;50.942;4.016;2023-03-04T16:03:51;10.60;99.90
52273;DHT22;38227;50.942;4.016;2023-03-04T16:06:24;10.60;99.90
52273;DHT22;38227;50.942;4.016;2023-03-04T16:08:52;10.40;99.90
52273;DHT22;38227;50.942;4.016;2023-03-04T16:11:22;10.30;99.90
52273;DHT22;38227;50.942;4.016;2023-03-04T16:13:50;10.10;99.90
52273;DHT22;38227;50.942;4.016;2023-03-04T16:16:19;10.00;99.90
52273;DHT22;38227;50.942;4.016;2023-03-04T16:18:47;9.90;99.90
52273;DHT22;38227;50.942;4.016;2023-03-04T16:21:19;9.70;99.90
52273;DHT22;38227;50.942;4.016;2023-03-04T16:23:50;9.90;99.90
52273;DHT22;38227;50.942;4.016;2023-03-04T16:26:24;9.90;99.90
52273;DHT22;38227;50.942;4.016;2023-03-04T16:28:52;10.10;99.90
52273;DHT22;38227;50.942;4.016;2023-03-04T16:31:31;10.00;99.90
52273;DHT22;38227;50.942;4.016;2023-03-04T16:34:02;9.80;99.90
52273;DHT22;38227;50.942;4.016;2023-03-04T16:36:30;9.80;99.90
52273;DHT22;38227;50.942;4.016;2023-03-04T16:39:03;9.60;99.90
52273;DHT22;38227;50.942;4.016;2023-03-04T16:41:31;9.50;99.90
52273;DHT22;38227;50.942;4.016;2023-03-04T16:44:12;9.60;99.90
52273;DHT22;38227;50.942;4.016;2023-03-04T16:46:39;9.70;99.90
52273;DHT22;38227;50.942;4.016;2023-03-04T16:49:09;9.70;99.90
52273;DHT22;38227;50.942;4.016;2023-03-04T16:51:44;9.80;99.90
52273;DHT22;38227;50.942;4.016;2023-03-04T16:54:25;9.80;99.90
52273;DHT22;38227;50.942;4.016;2023-03-04T16:56:56;9.70;99.90
52273;DHT22;38227;50.942;4.016;2023-03-04T16:59:24;9.70;99.90
52273;DHT22;38227;50.942;4.016;2023-03-04T17:01:55;9.50;99.90
52273;DHT22;38227;50.942;4.016;2023-03-04T17:04:30;9.60;99.90
52273;DHT22;38227;50.942;4.016;2023-03-04T17:06:59;9.50;99.90
52273;DHT22;38227;50.942;4.016;2023-03-04T17:09:27;9.60;99.90
52273;DHT22;38227;50.942;4.016;2023-03-04T17:12:07;9.60;99.90
52273;DHT22;38227;50.942;4.016;2023-03-04T17:14:35;9.50;99.90
52273;DHT22;38227;50.942;4.016;2023-03-04T17:17:05;9.50;99.90
52273;DHT22;38227;50.942;4.016;2023-03-04T17:19:33;9.50;99.90
52273;DHT22;38227;50.942;4.016;2023-03-04T17:22:06;9.30;99.90
52273;DHT22;38227;50.942;4.016;2023-03-04T17:24:35;9.00;99.90
52273;DHT22;38227;50.942;4.016;2023-03-04T17:27:03;9.00;99.90
52273;DHT22;38227;50.942;4.016;2023-03-04T17:29:41;8.90;99.90
52273;DHT22;38227;50.942;4.016;2023-03-04T17:32:09;9.00;99.90
52273;DHT22;38227;50.942;4.016;2023-03-04T17:34:41;9.00;99.90
52273;DHT22;38227;50.942;4.016;2023-03-04T17:37:10;9.00;99.90
52273;DHT22;38227;50.942;4.016;2023-03-04T17:39:38;9.00;99.90
52273;DHT22;38227;50.942;4.016;2023-03-04T17:42:17;9.00;99.90
52273;DHT22;38227;50.942;4.016;2023-03-04T17:44:44;8.80;99.90
52273;DHT22;38227;50.942;4.016;2023-03-04T17:47:22;8.70;99.90
52273;DHT22;38227;50.942;4.016;2023-03-04T17:49:50;8.70;99.90
52273;DHT22;38227;50.942;4.016;2023-03-04T17:52:18;8.60;99.90